Time;durP1;ratioP1;P1;durP2;ratioP2;P2;SDS_P1;SDS_P2;PMS_P1;PMS_P2;Temp;Humidity;BMP_temperature;BMP_pressure;BME280_temperature;BME280_humidity;BME280_pressure;Samples;Min_cycle;Max_cycle;Signal;HPM_P1;HPM_P2
2022/10/20 00:02:00;;;;;;;23.60;21.90;;;12.10;95.90;;;;;;5064783;28;20457;-75
2022/10/20 00:04:28;;;;;;;23.17;21.37;;;12.10;96.30;;;;;;5053247;28;20592;-75
2022/10/20 00:06:55;;;;;;;23.77;21.10;;;12.00;96.30;;;;;;5076639;28;20460;-75
2022/10/20 00:09:22;;;;;;;23.73;22.10;;;12.00;96.30;;;;;;5059710;28;20528;-75
2022/10/20 00:11:49;;;;;;;23.83;21.73;;;12.00;96.40;;;;;;5053164;28;20460;-75
2022/10/20 00:14:16;;;;;;;24.80;22.70;;;12.00;96.40;;;;;;5053251;28;20486;-75
2022/10/20 00:16:43;;;;;;;23.93;22.03;;;12.00;96.30;;;;;;5072629;28;20487;-75
2022/10/20 00:19:11;;;;;;;24.83;22.87;;;12.00;96.70;;;;;;5074020;28;20469;-75
2022/10/20 00:21:38;;;;;;;23.33;21.47;;;12.00;96.80;;;;;;5051384;28;20600;-75
2022/10/20 00:24:05;;;;;;;25.97;23.47;;;11.90;96.80;;;;;;5070999;28;20568;-76
2022/10/20 00:26:32;;;;;;;23.90;22.10;;;11.90;96.60;;;;;;5052572;28;20442;-75
2022/10/20 00:29:01;;;;;;;24.03;21.70;;;11.90;96.50;;;;;;5052580;28;21123;-75
2022/10/20 00:31:28;;;;;;;24.63;22.57;;;11.90;96.30;;;;;;5069924;28;20765;-76
2022/10/20 00:33:54;;;;;;;24.00;22.10;;;11.90;96.60;;;;;;5047686;28;20545;-76
2022/10/20 00:36:23;;;;;;;24.83;22.17;;;11.90;96.60;;;;;;5058556;28;20478;-76
2022/10/20 00:38:51;;;;;;;23.83;21.70;;;11.80;96.80;;;;;;5051038;28;20455;-76
2022/10/20 00:41:20;;;;;;;24.10;22.10;;;11.80;96.80;;;;;;5055079;28;20454;-76
2022/10/20 00:43:51;;;;;;;24.07;22.17;;;11.90;96.60;;;;;;5074396;28;20495;-76
2022/10/20 00:46:21;;;;;;;24.30;22.40;;;11.80;96.50;;;;;;5062951;28;20473;-76
2022/10/20 00:48:52;;;;;;;24.90;22.77;;;11.80;96.50;;;;;;5071318;28;20461;-75
2022/10/20 00:51:26;;;;;;;23.20;21.50;;;11.70;96.70;;;;;;5060538;28;20462;-76
2022/10/20 00:53:59;;;;;;;24.53;22.63;;;11.70;96.80;;;;;;5062587;28;20983;-76
2022/10/20 00:56:26;;;;;;;25.13;22.87;;;11.70;96.70;;;;;;5063960;28;20573;-76
2022/10/20 00:58:53;;;;;;;25.93;23.93;;;11.60;96.70;;;;;;5047955;28;20463;-76
2022/10/20 01:01:20;;;;;;;24.97;22.67;;;11.60;96.90;;;;;;5054663;28;20469;-76
2022/10/20 01:03:49;;;;;;;25.70;23.40;;;11.70;96.80;;;;;;5053192;28;20475;-76
2022/10/20 01:06:19;;;;;;;24.77;22.77;;;11.60;96.80;;;;;;5072142;28;21042;-76
2022/10/20 01:08:48;;;;;;;25.87;23.77;;;11.60;96.80;;;;;;5068000;28;20454;-76
2022/10/20 01:11:19;;;;;;;32.33;22.40;;;11.60;96.90;;;;;;5054240;28;20453;-76
2022/10/20 01:14:06;;;;;;;25.33;23.33;;;11.60;96.70;;;;;;5062106;28;20458;-76
2022/10/20 01:16:41;;;;;;;25.30;23.23;;;11.70;96.30;;;;;;5054012;28;20471;-76
2022/10/20 01:19:25;;;;;;;25.33;23.33;;;11.60;96.50;;;;;;5076478;28;20467;-76
2022/10/20 01:22:06;;;;;;;25.17;23.03;;;11.60;96.70;;;;;;5065003;28;20464;-76
2022/10/20 01:24:53;;;;;;;25.97;23.50;;;11.50;96.70;;;;;;5070953;28;20473;-76
2022/10/20 01:27:33;;;;;;;25.03;22.90;;;11.50;96.60;;;;;;5071607;28;20449;-77
2022/10/20 01:30:06;;;;;;;25.03;22.83;;;11.50;96.70;;;;;;5060496;28;20453;-76
2022/10/20 01:32:54;;;;;;;23.87;22.07;;;11.50;96.70;;;;;;5054096;28;20558;-76
2022/10/20 01:35:29;;;;;;;24.07;21.83;;;11.50;96.80;;;;;;5058718;28;20577;-76
2022/10/20 01:38:05;;;;;;;23.43;21.53;;;11.50;96.80;;;;;;5058584;28;20488;-76
2022/10/20 01:40:36;;;;;;;25.20;23.27;;;11.50;96.90;;;;;;5055466;28;20947;-76
2022/10/20 01:43:09;;;;;;;25.47;23.10;;;11.50;96.90;;;;;;5066732;28;20469;-76
2022/10/20 01:45:39;;;;;;;25.07;22.80;;;11.50;96.70;;;;;;5051604;28;20475;-76
2022/10/20 01:48:07;;;;;;;25.67;23.40;;;11.50;96.40;;;;;;5061514;28;20450;-76
2022/10/20 01:50:35;;;;;;;24.43;22.50;;;11.50;96.30;;;;;;5056057;28;20459;-76
2022/10/20 01:53:03;;;;;;;26.70;24.20;;;11.50;96.10;;;;;;5067944;28;20490;-76
2022/10/20 01:55:31;;;;;;;25.57;23.60;;;11.40;96.60;;;;;;5059149;28;21493;-76
2022/10/20 01:58:29;;;;;;;24.80;22.67;;;11.40;96.60;;;;;;5062717;28;20974;-76
2022/10/20 02:00:59;;;;;;;24.60;22.53;;;11.40;96.80;;;;;;5065491;28;20453;-76
2022/10/20 02:03:37;;;;;;;24.00;22.03;;;11.40;96.80;;;;;;5051619;28;21018;-76
2022/10/20 02:06:18;;;;;;;25.10;22.80;;;11.40;96.90;;;;;;5063627;28;20459;-76
2022/10/20 02:08:47;;;;;;;27.10;24.60;;;11.40;96.80;;;;;;5073426;28;20449;-76
2022/10/20 02:11:21;;;;;;;24.93;22.93;;;11.40;96.80;;;;;;5051312;28;20461;-76
2022/10/20 02:13:51;;;;;;;26.97;24.87;;;11.40;96.90;;;;;;5057663;28;20461;-76
2022/10/20 02:16:24;;;;;;;26.13;24.07;;;11.40;96.80;;;;;;5054262;28;20485;-76
2022/10/20 02:18:51;;;;;;;27.27;24.97;;;11.40;96.70;;;;;;5060583;28;20455;-76
2022/10/20 02:21:19;;;;;;;26.57;24.00;;;11.40;96.80;;;;;;5078222;28;20470;-76
2022/10/20 02:23:48;;;;;;;34.50;31.87;;;11.40;96.90;;;;;;5054400;28;20521;-76
2022/10/20 02:26:18;;;;;;;26.50;24.20;;;11.40;96.80;;;;;;5054230;28;20458;-76
2022/10/20 02:28:51;;;;;;;25.87;23.67;;;11.40;97.00;;;;;;5063467;28;20459;-76
2022/10/20 02:31:19;;;;;;;28.53;26.13;;;11.40;97.00;;;;;;5081440;28;20481;-76
2022/10/20 02:33:47;;;;;;;32.10;29.90;;;11.40;97.00;;;;;;5056511;28;20491;-76
2022/10/20 02:36:18;;;;;;;27.07;24.60;;;11.40;97.20;;;;;;5055402;28;20478;-76
2022/10/20 02:38:45;;;;;;;25.10;22.97;;;11.40;97.10;;;;;;5069987;28;20454;-76
2022/10/20 02:41:12;;;;;;;30.93;28.60;;;11.40;97.10;;;;;;5061261;28;20483;-76
2022/10/20 02:43:39;;;;;;;26.33;24.17;;;11.40;97.10;;;;;;5058994;28;20537;-76
2022/10/20 02:46:07;;;;;;;26.97;24.37;;;11.40;97.30;;;;;;5069707;28;20485;-76
2022/10/20 02:48:37;;;;;;;27.80;25.50;;;11.40;97.20;;;;;;5084266;28;20810;-76
2022/10/20 02:51:05;;;;;;;30.93;28.57;;;11.40;97.20;;;;;;5078056;28;20472;-76
2022/10/20 02:53:32;;;;;;;25.90;23.70;;;11.50;96.90;;;;;;5071433;28;20455;-76
2022/10/20 02:55:59;;;;;;;26.03;23.83;;;11.50;96.80;;;;;;5065219;28;20486;-76
2022/10/20 02:58:26;;;;;;;28.40;25.83;;;11.50;96.80;;;;;;5057275;28;20459;-76
2022/10/20 03:00:53;;;;;;;27.60;25.17;;;11.50;97.00;;;;;;5067771;28;20458;-76
2022/10/20 03:03:21;;;;;;;28.50;26.07;;;11.50;97.00;;;;;;5067592;28;20553;-76
2022/10/20 03:05:48;;;;;;;28.20;25.77;;;11.50;97.10;;;;;;5059959;28;20476;-76
2022/10/20 03:08:15;;;;;;;27.97;25.73;;;11.50;97.10;;;;;;5069474;28;20984;-76
2022/10/20 03:10:42;;;;;;;28.77;26.27;;;11.50;97.10;;;;;;5061729;28;20852;-76
2022/10/20 03:13:09;;;;;;;31.57;28.57;;;11.60;96.90;;;;;;5065426;28;20453;-76
2022/10/20 03:15:38;;;;;;;28.87;26.53;;;11.60;96.60;;;;;;5053148;28;20478;-76
2022/10/20 03:18:05;;;;;;;26.50;24.33;;;11.60;96.60;;;;;;5063430;28;20458;-76
2022/10/20 03:20:33;;;;;;;28.57;25.97;;;11.60;96.60;;;;;;5076225;28;20957;-76
2022/10/20 03:23:00;;;;;;;33.40;30.43;;;11.60;96.70;;;;;;5068221;28;20462;-76
2022/10/20 03:25:27;;;;;;;34.20;31.60;;;11.60;96.80;;;;;;5066296;28;21306;-75
2022/10/20 03:27:54;;;;;;;30.10;27.77;;;11.60;96.80;;;;;;5062527;28;20468;-75
2022/10/20 03:30:21;;;;;;;36.53;33.73;;;11.60;96.90;;;;;;5059190;28;20456;-75
2022/10/20 03:32:48;;;;;;;36.93;33.90;;;11.60;97.00;;;;;;5064952;28;20450;-75
2022/10/20 03:35:15;;;;;;;27.67;25.00;;;11.60;97.10;;;;;;5060806;28;20470;-75
2022/10/20 03:37:43;;;;;;;26.77;24.47;;;11.60;97.20;;;;;;5072162;28;20608;-75
2022/10/20 03:40:11;;;;;;;37.73;34.17;;;11.70;97.00;;;;;;5051092;28;20956;-75
2022/10/20 03:42:37;;;;;;;31.07;28.23;;;11.70;97.00;;;;;;5050633;28;21387;-75
2022/10/20 03:45:05;;;;;;;28.47;25.53;;;11.70;97.00;;;;;;5076493;28;20544;-78
2022/10/20 03:47:32;;;;;;;30.47;27.87;;;11.80;96.80;;;;;;5064909;28;20470;-78
2022/10/20 03:49:59;;;;;;;29.00;26.40;;;11.80;97.00;;;;;;5054505;28;20451;-78
2022/10/20 03:52:26;;;;;;;31.23;28.10;;;11.80;96.80;;;;;;5062167;28;20978;-78
2022/10/20 03:54:54;;;;;;;29.27;26.63;;;11.80;96.90;;;;;;5064352;28;20481;-78
2022/10/20 03:57:21;;;;;;;35.87;32.93;;;11.90;96.90;;;;;;5055491;28;20558;-78
2022/10/20 03:59:48;;;;;;;37.53;34.40;;;11.80;96.40;;;;;;5062901;28;20573;-76
2022/10/20 04:02:28;;;;;;;28.00;25.90;;;11.80;96.30;;;;;;5053863;28;20550;-76
2022/10/20 04:04:54;;;;;;;29.80;27.30;;;11.80;96.40;;;;;;5055175;28;20492;-76
2022/10/20 04:07:21;;;;;;;33.30;30.70;;;11.80;96.50;;;;;;5057366;28;20465;-76
2022/10/20 04:09:48;;;;;;;29.67;26.97;;;11.80;96.30;;;;;;5061570;28;20462;-76
2022/10/20 04:12:17;;;;;;;30.93;28.30;;;11.90;96.30;;;;;;5063596;28;20459;-76
2022/10/20 04:14:44;;;;;;;39.30;36.33;;;11.80;96.10;;;;;;5072061;28;20471;-76
2022/10/20 04:17:11;;;;;;;31.13;28.47;;;11.80;96.20;;;;;;5049839;28;20497;-76
2022/10/20 04:19:37;;;;;;;40.80;37.63;;;11.80;96.30;;;;;;5065362;28;20986;-76
2022/10/20 04:22:04;;;;;;;28.70;26.20;;;11.80;96.30;;;;;;5056629;28;20469;-76
2022/10/20 04:24:31;;;;;;;28.73;26.20;;;11.90;96.10;;;;;;5077092;28;20470;-76
2022/10/20 04:26:58;;;;;;;35.43;32.87;;;11.90;96.00;;;;;;5075527;28;20485;-76
2022/10/20 04:29:27;;;;;;;28.33;25.57;;;11.90;95.70;;;;;;5075074;28;20472;-76
2022/10/20 04:31:53;;;;;;;29.10;26.30;;;11.90;95.60;;;;;;5057505;28;20974;-76
2022/10/20 04:34:20;;;;;;;34.63;30.97;;;12.00;95.40;;;;;;5057206;28;20547;-76
2022/10/20 04:36:47;;;;;;;35.90;33.17;;;12.00;95.50;;;;;;5048626;28;20479;-76
2022/10/20 04:39:15;;;;;;;37.13;34.30;;;11.90;95.60;;;;;;5053274;28;20465;-75
2022/10/20 04:41:42;;;;;;;30.40;27.80;;;12.00;95.50;;;;;;5063472;28;20678;-75
2022/10/20 04:44:09;;;;;;;35.17;32.27;;;12.10;94.90;;;;;;5075426;28;20266;-76
2022/10/20 04:46:37;;;;;;;34.23;31.67;;;12.00;94.70;;;;;;5076510;28;20448;-76
2022/10/20 04:49:04;;;;;;;29.27;26.70;;;12.00;94.80;;;;;;5074948;28;20997;-76
2022/10/20 04:51:31;;;;;;;42.47;39.03;;;12.00;94.70;;;;;;5065065;28;20581;-76
2022/10/20 04:53:58;;;;;;;27.83;25.43;;;11.90;95.20;;;;;;5066582;28;20495;-75
2022/10/20 04:56:25;;;;;;;32.87;30.23;;;11.90;95.40;;;;;;5074610;28;20481;-77
2022/10/20 04:58:55;;;;;;;31.47;29.07;;;11.90;95.60;;;;;;5071856;28;20464;-77
2022/10/20 05:01:24;;;;;;;33.10;30.50;;;11.90;95.70;;;;;;5060345;28;20485;-78
2022/10/20 05:03:53;;;;;;;31.20;28.50;;;11.90;95.70;;;;;;5067506;28;20880;-78
2022/10/20 05:06:21;;;;;;;33.45;30.70;;;11.90;95.50;;;;;;5068521;28;20556;-77
2022/10/20 05:08:50;;;;;;;30.25;27.50;;;12.10;94.60;;;;;;5065742;28;20469;-76
2022/10/20 05:11:18;;;;;;;32.77;30.30;;;12.20;94.60;;;;;;5057947;28;20466;-75
2022/10/20 05:13:45;;;;;;;40.03;37.27;;;12.10;94.40;;;;;;5058243;28;20817;-76
2022/10/20 05:16:13;;;;;;;39.77;36.60;;;12.00;94.80;;;;;;5074472;28;20463;-75
2022/10/20 05:18:40;;;;;;;31.73;28.43;;;12.00;95.40;;;;;;5070597;28;20461;-75
2022/10/20 05:21:10;;;;;;;38.93;35.80;;;11.90;95.60;;;;;;5068678;28;20456;-81
2022/10/20 05:23:38;;;;;;;33.77;31.17;;;11.90;95.80;;;;;;5087529;28;20459;-77
2022/10/20 05:26:07;;;;;;;27.87;25.77;;;11.90;96.00;;;;;;5058831;28;20465;-77
2022/10/20 05:28:35;;;;;;;28.00;25.50;;;11.90;96.00;;;;;;5076814;28;22085;-77
2022/10/20 05:31:03;;;;;;;28.87;26.60;;;12.00;95.70;;;;;;5066920;28;21183;-77
2022/10/20 05:33:30;;;;;;;33.43;30.60;;;11.90;95.70;;;;;;5072089;28;20569;-77
2022/10/20 05:35:57;;;;;;;29.63;27.30;;;11.90;95.80;;;;;;5063441;28;20478;-77
2022/10/20 05:38:25;;;;;;;27.97;25.37;;;12.00;95.70;;;;;;5075981;28;20483;-77
2022/10/20 05:40:52;;;;;;;40.37;37.37;;;11.90;95.60;;;;;;5062342;28;20472;-76
2022/10/20 05:43:19;;;;;;;33.40;30.43;;;12.00;95.50;;;;;;5069794;28;20471;-77
2022/10/20 05:45:46;;;;;;;31.43;28.77;;;11.90;95.80;;;;;;5064155;28;20482;-72
2022/10/20 05:48:13;;;;;;;31.30;28.13;;;11.90;96.00;;;;;;5064306;28;20820;-73
2022/10/20 05:50:40;;;;;;;29.30;26.30;;;11.90;96.10;;;;;;5063169;28;20463;-74
2022/10/20 05:53:07;;;;;;;33.30;30.77;;;11.90;96.20;;;;;;5067894;28;20891;-77
2022/10/20 05:55:35;;;;;;;36.40;33.50;;;11.90;96.30;;;;;;5079625;28;20481;-75
2022/10/20 05:58:02;;;;;;;35.88;32.97;;;11.90;96.60;;;;;;5062265;28;20464;-76
2022/10/20 06:00:31;;;;;;;39.63;36.47;;;12.10;96.50;;;;;;5050379;28;20278;-75
2022/10/20 06:05:57;;;;;;;30.00;27.10;;;12.10;95.80;;;;;;5056118;28;20475;-75
2022/10/20 06:08:24;;;;;;;36.20;33.10;;;12.10;95.90;;;;;;5049761;28;20561;-75
2022/10/20 06:10:52;;;;;;;38.23;34.43;;;12.00;96.10;;;;;;5049970;28;20455;-75
2022/10/20 06:13:19;;;;;;;43.27;40.20;;;12.00;96.30;;;;;;5050031;28;20550;-76
2022/10/20 06:15:48;;;;;;;44.87;41.23;;;12.10;96.30;;;;;;5057915;28;20486;-76
2022/10/20 06:18:15;;;;;;;32.37;29.67;;;12.10;96.10;;;;;;5059375;28;21024;-75
2022/10/20 06:20:41;;;;;;;36.67;33.90;;;12.20;95.90;;;;;;5050535;28;20459;-75
2022/10/20 06:23:08;;;;;;;42.43;39.43;;;12.20;95.70;;;;;;5052435;28;20537;-75
2022/10/20 06:25:35;;;;;;;32.90;30.00;;;12.30;95.70;;;;;;5064647;28;20557;-75
2022/10/20 06:28:04;;;;;;;37.77;34.67;;;12.30;95.80;;;;;;5070132;28;20461;-75
2022/10/20 06:30:30;;;;;;;29.50;26.47;;;12.30;95.70;;;;;;5074129;28;20457;-75
2022/10/20 06:32:57;;;;;;;32.93;30.07;;;12.30;95.80;;;;;;5090825;28;20449;-76
2022/10/20 06:35:24;;;;;;;29.10;26.37;;;12.40;95.70;;;;;;5074254;28;20478;-75
2022/10/20 06:37:51;;;;;;;28.63;26.23;;;12.40;95.60;;;;;;5070090;28;20482;-76
2022/10/20 06:40:18;;;;;;;29.07;26.47;;;12.50;95.60;;;;;;5054187;28;20473;-76
2022/10/20 06:42:45;;;;;;;33.57;31.07;;;12.50;95.40;;;;;;5054200;28;20459;-76
2022/10/20 06:45:13;;;;;;;29.77;26.97;;;12.60;95.00;;;;;;5049485;28;20474;-75
2022/10/20 06:47:40;;;;;;;40.50;37.50;;;12.70;94.90;;;;;;5049988;28;20831;-75
2022/10/20 06:50:08;;;;;;;34.47;31.57;;;12.70;94.90;;;;;;5049215;28;20458;-76
2022/10/20 06:52:35;;;;;;;36.10;33.20;;;12.80;95.00;;;;;;5057291;28;20450;-75
2022/10/20 06:55:02;;;;;;;31.97;29.23;;;12.90;94.70;;;;;;5069152;28;20886;-76
2022/10/20 06:57:31;;;;;;;29.70;26.70;;;12.90;94.60;;;;;;5062301;28;20479;-76
2022/10/20 06:59:58;;;;;;;28.63;26.40;;;13.00;94.50;;;;;;5068567;28;20460;-75
2022/10/20 07:02:26;;;;;;;35.17;32.50;;;13.10;93.90;;;;;;5063697;28;20881;-75
2022/10/20 07:04:53;;;;;;;30.57;28.20;;;13.30;93.70;;;;;;5066431;28;20488;-76
2022/10/20 07:07:20;;;;;;;30.97;28.13;;;13.40;92.80;;;;;;5063752;28;20505;-76
2022/10/20 07:09:47;;;;;;;31.80;29.00;;;13.40;92.30;;;;;;5057656;28;20468;-76
2022/10/20 07:12:14;;;;;;;33.77;30.83;;;13.50;92.40;;;;;;5068130;28;20538;-76
2022/10/20 07:14:40;;;;;;;29.93;27.27;;;13.60;92.30;;;;;;5048403;28;20562;-76
2022/10/20 07:17:07;;;;;;;41.53;38.00;;;13.60;92.00;;;;;;5048080;28;20481;-76
2022/10/20 07:19:36;;;;;;;34.93;31.43;;;13.70;92.00;;;;;;5065858;28;20461;-76
2022/10/20 07:22:02;;;;;;;30.53;27.97;;;13.80;92.40;;;;;;5067502;28;20462;-76
2022/10/20 07:24:29;;;;;;;46.13;42.50;;;13.90;91.70;;;;;;5066403;28;20474;-76
2022/10/20 07:26:56;;;;;;;28.50;26.17;;;13.90;91.60;;;;;;5066842;28;20545;-76
2022/10/20 07:29:23;;;;;;;30.23;28.00;;;14.00;90.90;;;;;;5067355;28;20457;-76
2022/10/20 07:31:50;;;;;;;38.00;35.47;;;14.20;90.50;;;;;;5048258;28;20458;-76
2022/10/20 07:34:21;;;;;;;39.27;36.50;;;14.30;90.00;;;;;;5055680;28;20474;-77
2022/10/20 07:36:50;;;;;;;32.73;29.37;;;14.40;89.30;;;;;;5060276;28;20549;-76
2022/10/20 07:39:17;;;;;;;34.17;31.57;;;14.50;89.40;;;;;;5054124;28;20465;-76
2022/10/20 07:41:46;;;;;;;36.90;34.03;;;14.50;88.90;;;;;;5068128;28;20454;-76
2022/10/20 07:44:13;;;;;;;42.03;38.93;;;14.50;88.80;;;;;;5060192;28;20893;-76
2022/10/20 07:46:39;;;;;;;45.23;41.83;;;14.70;88.20;;;;;;5055589;28;20463;-75
2022/10/20 07:49:06;;;;;;;38.57;35.83;;;14.80;87.60;;;;;;5065912;28;20565;-75
2022/10/20 07:51:34;;;;;;;32.30;29.97;;;14.80;86.90;;;;;;5056434;28;20463;-76
2022/10/20 07:54:05;;;;;;;30.80;28.73;;;14.80;86.90;;;;;;5047597;28;20475;-76
2022/10/20 07:56:35;;;;;;;32.00;29.13;;;14.80;87.10;;;;;;5053905;28;20458;-76
2022/10/20 07:59:02;;;;;;;31.40;29.40;;;14.80;87.40;;;;;;5048616;28;20553;-76
2022/10/20 08:01:29;;;;;;;48.63;45.93;;;14.90;87.10;;;;;;5062431;28;20537;-75
2022/10/20 08:03:55;;;;;;;38.17;35.77;;;15.00;86.90;;;;;;5060135;28;20467;-75
2022/10/20 08:06:23;;;;;;;42.13;39.57;;;15.00;86.30;;;;;;5060725;28;20457;-75
2022/10/20 08:08:50;;;;;;;35.40;33.20;;;15.00;85.90;;;;;;5058359;28;20549;-76
2022/10/20 08:11:18;;;;;;;34.63;32.47;;;15.10;86.00;;;;;;5055686;28;20461;-75
2022/10/20 08:13:45;;;;;;;42.33;39.73;;;15.10;86.10;;;;;;5050655;28;20854;-75
2022/10/20 08:16:14;;;;;;;35.40;32.93;;;15.30;85.90;;;;;;5059876;28;20458;-75
2022/10/20 08:18:41;;;;;;;29.77;27.97;;;15.40;85.70;;;;;;5060557;28;20577;-75
2022/10/20 08:21:10;;;;;;;40.23;37.80;;;15.40;84.90;;;;;;5054027;28;20578;-75
2022/10/20 08:23:40;;;;;;;29.87;27.97;;;15.50;85.00;;;;;;5047495;28;20461;-75
2022/10/20 08:26:07;;;;;;;40.47;37.80;;;15.50;84.80;;;;;;5063114;28;20545;-75
2022/10/20 08:28:36;;;;;;;30.83;28.70;;;15.70;84.40;;;;;;5067062;28;20457;-75
2022/10/20 08:31:04;;;;;;;39.37;37.07;;;15.80;84.20;;;;;;5065822;28;20470;-75
2022/10/20 08:33:31;;;;;;;31.00;29.10;;;16.00;83.60;;;;;;5054424;28;20469;-75
2022/10/20 08:36:02;;;;;;;32.30;30.23;;;16.10;83.00;;;;;;5048369;28;21071;-75
2022/10/20 08:38:29;;;;;;;29.20;27.40;;;16.10;82.80;;;;;;5053985;28;20859;-75
2022/10/20 08:40:57;;;;;;;35.13;32.83;;;16.20;82.70;;;;;;5058238;28;20565;-75
2022/10/20 08:43:25;;;;;;;39.23;37.10;;;16.30;82.30;;;;;;5058358;28;20458;-75
2022/10/20 08:45:53;;;;;;;35.13;33.00;;;16.30;82.20;;;;;;5056849;28;21012;-75
2022/10/20 08:48:24;;;;;;;33.80;31.90;;;16.40;82.00;;;;;;5055181;28;20460;-76
2022/10/20 08:50:52;;;;;;;32.07;30.27;;;16.40;82.10;;;;;;5067366;28;20454;-75
2022/10/20 08:53:23;;;;;;;31.83;29.83;;;16.40;82.00;;;;;;5065744;28;20493;-75
2022/10/20 08:55:51;;;;;;;39.00;36.83;;;16.50;81.90;;;;;;5064530;28;20478;-75
2022/10/20 08:58:20;;;;;;;31.40;29.30;;;16.50;81.80;;;;;;5049351;28;20511;-75
2022/10/20 09:00:50;;;;;;;39.83;37.73;;;16.70;81.80;;;;;;5047251;28;20451;-75
2022/10/20 09:03:21;;;;;;;42.07;39.70;;;16.80;81.60;;;;;;5060230;28;20545;-75
2022/10/20 09:05:52;;;;;;;33.47;31.37;;;16.90;81.60;;;;;;5066668;28;20496;-75
2022/10/20 09:08:21;;;;;;;32.30;30.30;;;17.00;81.30;;;;;;5061965;28;20640;-75
2022/10/20 09:10:51;;;;;;;38.30;36.13;;;17.10;81.00;;;;;;5046515;28;20483;-75
2022/10/20 09:13:23;;;;;;;28.73;27.07;;;17.20;81.00;;;;;;5047303;28;20451;-76
2022/10/20 09:15:51;;;;;;;29.97;28.27;;;17.50;80.40;;;;;;5052693;28;21015;-75
2022/10/20 09:18:20;;;;;;;32.87;30.87;;;17.60;79.60;;;;;;5057422;28;20478;-75
2022/10/20 09:20:52;;;;;;;34.07;32.00;;;17.80;79.00;;;;;;5059662;28;20467;-75
2022/10/20 09:23:24;;;;;;;31.57;29.77;;;17.90;78.70;;;;;;5051858;28;20458;-75
2022/10/20 09:25:52;;;;;;;42.83;40.73;;;18.10;78.00;;;;;;5056783;28;21027;-75
2022/10/20 09:28:23;;;;;;;39.10;37.10;;;18.00;77.80;;;;;;5050652;28;20450;-75
2022/10/20 09:30:50;;;;;;;33.50;31.70;;;18.00;77.90;;;;;;5052851;28;20824;-75
2022/10/20 09:33:30;;;;;;;34.20;32.50;;;18.00;77.60;;;;;;5056608;28;20986;-75
2022/10/20 09:36:04;;;;;;;34.37;32.50;;;18.00;77.80;;;;;;5060482;28;20469;-75
2022/10/20 09:38:35;;;;;;;31.97;30.43;;;18.00;78.00;;;;;;5056763;28;20840;-75
2022/10/20 09:41:16;;;;;;;41.50;39.20;;;18.10;78.10;;;;;;5055174;28;20466;-75
2022/10/20 09:43:50;;;;;;;35.07;33.27;;;18.20;77.90;;;;;;5055074;28;20454;-75
2022/10/20 09:46:21;;;;;;;35.07;33.27;;;18.20;77.70;;;;;;5055503;28;20459;-75
2022/10/20 09:48:51;;;;;;;33.63;31.60;;;18.40;77.20;;;;;;5055767;28;20455;-75
2022/10/20 09:51:22;;;;;;;39.63;37.43;;;18.50;77.00;;;;;;5050771;28;20481;-75
2022/10/20 09:53:57;;;;;;;32.97;31.07;;;18.60;76.50;;;;;;5056745;28;20543;-75
2022/10/20 09:56:27;;;;;;;39.37;36.97;;;18.70;76.40;;;;;;5053210;28;20461;-76
2022/10/20 09:58:56;;;;;;;43.63;41.37;;;18.70;76.80;;;;;;5055634;28;20567;-76
2022/10/20 10:01:23;;;;;;;37.43;35.43;;;18.80;76.20;;;;;;5066532;28;20461;-76
2022/10/20 10:03:55;;;;;;;39.67;37.63;;;18.70;76.20;;;;;;5061265;28;20472;-76
2022/10/20 10:06:29;;;;;;;34.83;32.00;;;18.80;76.50;;;;;;5062180;28;20546;-76
2022/10/20 10:08:57;;;;;;;34.37;32.17;;;18.80;76.60;;;;;;5064012;28;20457;-76
2022/10/20 10:11:29;;;;;;;39.07;37.00;;;18.90;76.50;;;;;;5069347;28;20454;-76
2022/10/20 10:13:56;;;;;;;40.37;38.17;;;19.00;75.90;;;;;;5068076;28;20513;-76
2022/10/20 10:16:24;;;;;;;38.87;36.40;;;19.20;75.90;;;;;;5067981;28;20454;-77
2022/10/20 10:19:00;;;;;;;34.87;32.87;;;19.30;75.60;;;;;;5063736;28;21124;-76
2022/10/20 10:21:28;;;;;;;35.77;33.67;;;19.50;75.00;;;;;;5051745;28;20455;-77
2022/10/20 10:23:57;;;;;;;36.17;34.27;;;19.50;75.00;;;;;;5056249;28;20465;-77
2022/10/20 10:26:44;;;;;;;32.57;30.87;;;19.60;74.70;;;;;;5068256;28;20462;-77
2022/10/20 10:29:19;;;;;;;38.77;36.67;;;19.60;74.50;;;;;;5057067;28;20454;-77
2022/10/20 10:31:52;;;;;;;36.57;34.60;;;19.70;74.40;;;;;;5069505;28;20847;-77
2022/10/20 10:34:42;;;;;;;46.90;44.00;;;19.70;74.60;;;;;;5066985;28;21003;-77
2022/10/20 10:37:13;;;;;;;35.00;32.87;;;19.90;74.10;;;;;;5066797;28;20872;-77
2022/10/20 10:39:41;;;;;;;40.47;36.40;;;20.00;73.80;;;;;;5059127;28;20475;-77
2022/10/20 10:42:41;;;;;;;34.73;32.30;;;20.10;73.50;;;;;;5049702;28;20463;-76
2022/10/20 10:45:17;;;;;;;34.00;31.90;;;20.30;73.00;;;;;;5064282;28;20789;-76
2022/10/20 10:48:22;;;;;;;35.57;33.77;;;20.30;72.40;;;;;;5065159;28;20450;-77
2022/10/20 10:50:56;;;;;;;44.87;42.43;;;20.10;72.60;;;;;;5053618;28;20541;-76
2022/10/20 10:53:42;;;;;;;38.73;36.53;;;20.10;72.50;;;;;;5049754;28;20451;-77
2022/10/20 10:56:21;;;;;;;46.23;43.70;;;20.20;72.30;;;;;;5068080;28;20456;-76
2022/10/20 10:58:56;;;;;;;44.47;42.13;;;20.10;72.80;;;;;;5064873;28;21008;-77
2022/10/20 11:01:38;;;;;;;37.80;35.60;;;20.10;72.70;;;;;;5065295;28;20464;-77
2022/10/20 11:04:34;;;;;;;56.40;52.63;;;20.10;72.90;;;;;;5061055;28;21045;-77
2022/10/20 11:07:11;;;;;;;51.07;47.87;;;19.90;74.60;;;;;;5064211;28;20929;-77
2022/10/20 11:09:49;;;;;;;45.40;42.70;;;19.80;75.30;;;;;;5068150;28;20795;-76
2022/10/20 11:12:28;;;;;;;42.90;40.07;;;19.90;75.10;;;;;;5064309;28;20498;-76
2022/10/20 11:15:11;;;;;;;43.00;40.10;;;20.00;74.80;;;;;;5064233;28;20824;-77
2022/10/20 11:17:51;;;;;;;47.73;44.83;;;20.00;75.00;;;;;;5063984;28;20464;-76
2022/10/20 11:20:26;;;;;;;37.03;35.03;;;20.10;74.80;;;;;;5053238;28;20652;-77
2022/10/20 11:23:19;;;;;;;35.90;33.97;;;20.10;74.70;;;;;;5062554;28;20460;-77
2022/10/20 11:25:52;;;;;;;36.10;34.20;;;20.20;74.00;;;;;;5045813;28;20561;-77
2022/10/20 11:28:31;;;;;;;33.30;31.47;;;20.30;73.40;;;;;;5048054;28;20463;-77
2022/10/20 11:30:58;;;;;;;35.50;33.37;;;20.40;73.20;;;;;;5048295;28;21005;-77
2022/10/20 11:33:30;;;;;;;37.20;35.20;;;20.40;72.80;;;;;;5061712;28;20538;-77
2022/10/20 11:36:01;;;;;;;32.90;31.10;;;20.40;72.30;;;;;;5051976;28;20477;-77
2022/10/20 11:38:35;;;;;;;33.33;31.63;;;20.20;73.10;;;;;;5068447;28;21070;-77
2022/10/20 11:41:06;;;;;;;37.83;35.77;;;20.10;73.40;;;;;;5062068;28;20497;-77
2022/10/20 11:43:39;;;;;;;33.47;31.67;;;20.20;73.70;;;;;;5051485;28;20453;-77
2022/10/20 11:46:09;;;;;;;44.40;41.90;;;20.10;73.50;;;;;;5053758;28;20458;-77
2022/10/20 11:48:42;;;;;;;36.07;33.87;;;20.00;74.10;;;;;;5057455;28;20864;-76
2022/10/20 11:51:39;;;;;;;31.53;29.60;;;20.00;74.30;;;;;;5047792;28;20459;-77
2022/10/20 11:54:27;;;;;;;37.00;35.00;;;20.00;74.10;;;;;;5060160;28;20478;-77
2022/10/20 11:57:05;;;;;;;35.23;33.63;;;20.00;74.10;;;;;;5065733;28;20457;-76
2022/10/20 12:00:00;;;;;;;33.37;31.53;;;20.10;73.80;;;;;;5046520;28;20479;-76
2022/10/20 12:03:05;;;;;;;34.53;32.63;;;20.00;74.50;;;;;;5054636;28;20458;-76
2022/10/20 12:05:55;;;;;;;33.37;31.57;;;20.00;74.10;;;;;;5059460;28;20560;-76
2022/10/20 12:08:51;;;;;;;35.97;33.87;;;20.00;74.10;;;;;;5082297;28;20902;-76
2022/10/20 12:11:28;;;;;;;43.97;41.67;;;20.00;74.30;;;;;;5048831;28;20832;-76
2022/10/20 12:14:06;;;;;;;34.97;33.20;;;19.90;74.60;;;;;;5048152;28;20447;-76
2022/10/20 12:17:04;;;;;;;37.47;35.57;;;19.90;74.30;;;;;;5047990;28;20463;-76
2022/10/20 12:19:32;;;;;;;41.57;39.43;;;19.80;74.70;;;;;;5052597;28;20565;-76
2022/10/20 12:22:01;;;;;;;42.23;40.23;;;19.70;74.90;;;;;;5053486;28;20461;-76
2022/10/20 12:24:36;;;;;;;47.77;45.23;;;19.60;75.20;;;;;;5050345;28;20474;-76
2022/10/20 12:27:20;;;;;;;32.60;30.90;;;19.70;75.10;;;;;;5056864;28;21046;-76
2022/10/20 12:29:58;;;;;;;34.77;33.17;;;19.80;74.90;;;;;;5054972;28;20450;-76
2022/10/20 12:32:38;;;;;;;36.93;35.10;;;19.70;74.80;;;;;;5055054;28;20462;-76
2022/10/20 12:35:28;;;;;;;35.80;33.70;;;19.70;74.90;;;;;;5051002;28;20494;-76
2022/10/20 12:37:56;;;;;;;37.37;35.57;;;19.70;74.90;;;;;;5058336;28;20538;-76
2022/10/20 12:40:30;;;;;;;37.47;35.77;;;19.60;75.20;;;;;;5066064;28;20482;-76
2022/10/20 12:42:58;;;;;;;40.30;38.20;;;19.70;75.20;;;;;;5065571;28;20936;-76
2022/10/20 12:45:35;;;;;;;32.50;30.90;;;19.70;75.10;;;;;;5046418;28;20470;-75
2022/10/20 12:48:03;;;;;;;37.80;35.93;;;19.80;74.70;;;;;;5050466;28;20452;-76
2022/10/20 12:50:35;;;;;;;39.70;37.70;;;19.60;75.20;;;;;;5057919;28;20449;-76